createdAt,value
2022-07-28T00:01:18.651Z,12.55
2022-07-28T00:03:49.084Z,12.57
2022-07-28T00:06:17.774Z,12.65
2022-07-28T00:08:45.978Z,12.71
2022-07-28T00:11:14.012Z,12.67
2022-07-28T00:13:43.372Z,12.41
2022-07-28T00:16:11.496Z,12.30
2022-07-28T00:18:39.731Z,12.17
2022-07-28T00:21:08.089Z,12.02
2022-07-28T00:23:39.092Z,12.08
2022-07-28T00:26:08.571Z,12.37
2022-07-28T00:28:36.879Z,12.19
2022-07-28T00:31:10.187Z,12.27
2022-07-28T00:33:41.420Z,12.20
2022-07-28T00:36:11.434Z,11.99
2022-07-28T00:38:40.795Z,12.10
2022-07-28T00:41:12.525Z,12.03
2022-07-28T00:43:41.401Z,11.91
2022-07-28T00:46:11.443Z,11.91
2022-07-28T00:48:40.074Z,12.00
2022-07-28T00:51:09.228Z,11.72
2022-07-28T00:53:37.320Z,11.82
2022-07-28T00:56:06.909Z,11.81
2022-07-28T00:58:35.838Z,11.81
2022-07-28T01:01:05.324Z,11.75
2022-07-28T01:03:37.380Z,11.61
2022-07-28T01:06:13.508Z,11.74
2022-07-28T01:08:54.329Z,11.78
2022-07-28T01:11:31.192Z,11.96
2022-07-28T01:14:08.779Z,11.75
2022-07-28T01:16:41.868Z,11.72
2022-07-28T01:19:29.256Z,11.67
2022-07-28T01:22:00.943Z,11.70
2022-07-28T01:24:34.810Z,11.44
2022-07-28T01:27:06.964Z,11.50
2022-07-28T01:29:56.716Z,11.31
2022-07-28T01:32:28.490Z,11.37
2022-07-28T01:35:01.170Z,11.58
2022-07-28T01:37:33.839Z,11.75
2022-07-28T01:40:06.304Z,11.83
2022-07-28T01:42:38.402Z,11.71
2022-07-28T01:45:09.110Z,11.79
2022-07-28T01:47:40.282Z,11.67
2022-07-28T01:50:12.507Z,11.61
2022-07-28T01:52:42.656Z,11.43
2022-07-28T01:55:12.586Z,11.63
2022-07-28T01:57:42.157Z,11.70
2022-07-28T02:00:12.416Z,11.61
2022-07-28T02:02:44.807Z,11.57
2022-07-28T02:05:16.104Z,11.51
2022-07-28T02:07:49.060Z,11.63
2022-07-28T02:10:18.459Z,11.58
2022-07-28T02:12:49.965Z,11.67
2022-07-28T02:15:18.989Z,11.61
2022-07-28T02:17:49.498Z,11.58
2022-07-28T02:20:19.333Z,11.53
2022-07-28T02:22:51.605Z,11.44
2022-07-28T02:25:21.008Z,11.34
2022-07-28T02:27:51.834Z,11.53
2022-07-28T02:30:26.149Z,11.48
2022-07-28T02:33:00.374Z,11.38
2022-07-28T02:35:34.198Z,11.61
2022-07-28T02:38:10.509Z,11.64
2022-07-28T02:40:41.575Z,11.54
2022-07-28T02:43:15.632Z,11.68
2022-07-28T02:45:47.114Z,11.65
2022-07-28T02:48:20.158Z,11.61
2022-07-28T02:50:49.795Z,11.55
2022-07-28T02:53:18.324Z,11.63
2022-07-28T02:55:48.529Z,11.58
2022-07-28T02:58:19.083Z,11.51
2022-07-28T03:00:48.284Z,11.68
2022-07-28T03:03:19.082Z,11.53
2022-07-28T03:05:47.606Z,11.51
2022-07-28T03:08:17.099Z,11.50
2022-07-28T03:10:45.416Z,11.58
2022-07-28T03:13:13.478Z,11.43
2022-07-28T03:15:41.512Z,11.54
2022-07-28T03:18:09.674Z,11.54
2022-07-28T03:20:39.175Z,11.60
2022-07-28T03:23:08.148Z,11.58
2022-07-28T03:25:42.067Z,11.38
2022-07-28T03:28:15.201Z,11.31
2022-07-28T03:30:46.512Z,11.34
2022-07-28T03:33:14.939Z,11.38
2022-07-28T03:35:48.663Z,11.30
2022-07-28T03:38:21.556Z,11.31
2022-07-28T03:40:50.480Z,11.20
2022-07-28T03:43:22.605Z,11.33
2022-07-28T03:45:51.541Z,11.37
2022-07-28T03:48:23.366Z,11.26
2022-07-28T03:50:52.784Z,11.18
2022-07-28T03:53:22.453Z,11.12
2022-07-28T03:55:51.800Z,11.12
2022-07-28T03:58:20.746Z,11.12
2022-07-28T04:00:49.392Z,11.13
2022-07-28T04:03:35.773Z,11.15
2022-07-28T04:06:07.513Z,11.06
2022-07-28T04:08:35.510Z,11.02
2022-07-28T04:11:03.697Z,10.95
2022-07-28T04:13:33.006Z,11.09
2022-07-28T04:16:01.338Z,11.26
2022-07-28T04:18:29.459Z,11.18
2022-07-28T04:20:57.752Z,11.05
2022-07-28T04:23:27.172Z,10.98
2022-07-28T04:25:55.430Z,10.99
2022-07-28T04:28:24.236Z,11.13
2022-07-28T04:30:52.373Z,11.12
2022-07-28T04:33:20.607Z,11.20
2022-07-28T04:35:48.773Z,11.15
2022-07-28T04:38:18.128Z,11.08
2022-07-28T04:40:48.367Z,11.19
2022-07-28T04:43:16.379Z,11.23
2022-07-28T04:45:46.745Z,11.19
2022-07-28T04:48:21.891Z,11.24
2022-07-28T04:50:51.343Z,11.08
2022-07-28T04:53:19.727Z,10.98
2022-07-28T04:55:49.515Z,11.09
2022-07-28T04:58:19.562Z,11.15
2022-07-28T05:00:50.399Z,11.33
2022-07-28T05:03:19.586Z,11.33
2022-07-28T05:05:52.878Z,11.19
2022-07-28T05:08:26.104Z,11.26
2022-07-28T05:10:56.874Z,11.37
2022-07-28T05:13:31.884Z,11.44
2022-07-28T05:16:03.143Z,11.38
2022-07-28T05:18:31.582Z,11.60
2022-07-28T05:20:59.670Z,11.50
2022-07-28T05:23:27.964Z,11.58
2022-07-28T05:25:58.347Z,11.85
2022-07-28T05:28:26.525Z,11.86
2022-07-28T05:30:54.510Z,11.93
2022-07-28T05:33:22.601Z,11.89
2022-07-28T05:35:54.793Z,11.96
2022-07-28T05:38:24.540Z,11.99
2022-07-28T05:40:54.193Z,11.99
2022-07-28T05:43:24.484Z,12.13
2022-07-28T05:45:53.088Z,12.23
2022-07-28T05:48:22.055Z,12.37
2022-07-28T05:50:51.796Z,12.36
2022-07-28T05:53:21.150Z,12.54
2022-07-28T05:55:57.810Z,12.62
2022-07-28T05:58:31.807Z,12.67
2022-07-28T06:01:01.713Z,12.75
2022-07-28T06:03:32.130Z,12.77
2022-07-28T06:06:15.240Z,12.86
2022-07-28T06:08:46.901Z,13.03
2022-07-28T06:11:22.115Z,13.05
2022-07-28T06:13:54.200Z,13.17
2022-07-28T06:16:23.775Z,13.40
2022-07-28T06:18:52.502Z,13.58
2022-07-28T06:21:23.325Z,13.62
2022-07-28T06:23:52.203Z,13.72
2022-07-28T06:26:23.527Z,13.71
2022-07-28T06:28:54.519Z,13.79
2022-07-28T06:31:24.131Z,13.99
2022-07-28T06:33:52.164Z,14.05
2022-07-28T06:36:21.952Z,14.09
2022-07-28T06:38:50.006Z,14.24
2022-07-28T06:41:19.649Z,14.42
2022-07-28T06:43:47.697Z,14.41
2022-07-28T06:46:19.514Z,14.62
2022-07-28T06:48:47.838Z,14.64
2022-07-28T06:51:19.127Z,14.80
2022-07-28T06:53:48.402Z,14.79
2022-07-28T06:56:16.862Z,14.89
2022-07-28T06:58:46.986Z,15.06
2022-07-28T07:01:17.022Z,15.19
2022-07-28T07:03:45.059Z,15.37
2022-07-28T07:06:13.085Z,15.23
2022-07-28T07:08:41.090Z,15.13
2022-07-28T07:11:12.045Z,15.23
2022-07-28T07:13:40.206Z,15.11
2022-07-28T07:16:08.293Z,15.19
2022-07-28T07:18:39.200Z,15.41
2022-07-28T07:21:07.162Z,15.61
2022-07-28T07:23:36.884Z,15.82
2022-07-28T07:26:05.322Z,15.93
2022-07-28T07:28:35.506Z,15.68
2022-07-28T07:31:03.944Z,15.86
2022-07-28T07:33:32.832Z,15.85
2022-07-28T07:36:02.171Z,15.85
2022-07-28T07:38:30.273Z,16.14
2022-07-28T07:40:58.347Z,16.00
2022-07-28T07:43:26.427Z,16.13
2022-07-28T07:45:54.554Z,16.18
2022-07-28T07:48:22.564Z,15.94
2022-07-28T07:50:53.930Z,15.94
2022-07-28T07:53:24.276Z,16.09
2022-07-28T07:55:52.217Z,16.27
2022-07-28T07:58:20.306Z,16.38
2022-07-28T08:00:48.512Z,16.62
2022-07-28T08:03:22.606Z,16.54
2022-07-28T08:05:51.671Z,16.52
2022-07-28T08:08:19.618Z,16.65
2022-07-28T08:10:51.133Z,16.73
2022-07-28T08:13:23.094Z,16.79
2022-07-28T08:15:51.722Z,16.84
2022-07-28T08:18:20.563Z,16.79
2022-07-28T08:20:49.460Z,16.96
2022-07-28T08:23:19.569Z,17.07
2022-07-28T08:25:52.679Z,16.99
2022-07-28T08:28:20.645Z,16.97
2022-07-28T08:30:49.484Z,17.20
2022-07-28T08:33:22.072Z,17.24
2022-07-28T08:35:51.027Z,17.28
2022-07-28T08:38:20.000Z,17.53
2022-07-28T08:40:51.212Z,17.45
2022-07-28T08:43:31.102Z,17.34
2022-07-28T08:46:02.048Z,17.14
2022-07-28T08:48:33.387Z,17.25
2022-07-28T08:51:04.348Z,17.30
2022-07-28T08:53:33.452Z,17.15
2022-07-28T08:56:04.500Z,17.24
2022-07-28T08:58:36.389Z,17.23
2022-07-28T09:01:06.126Z,17.39
2022-07-28T09:03:37.096Z,17.72
2022-07-28T09:06:05.942Z,17.91
2022-07-28T09:08:33.975Z,18.11
2022-07-28T09:11:02.016Z,17.94
2022-07-28T09:13:30.102Z,18.10
2022-07-28T09:16:00.211Z,18.10
2022-07-28T09:18:28.411Z,18.20
2022-07-28T09:20:56.648Z,18.27
2022-07-28T09:23:42.873Z,18.32
2022-07-28T09:26:13.108Z,18.27
2022-07-28T09:28:54.649Z,18.32
2022-07-28T09:31:28.967Z,18.83
2022-07-28T09:34:03.681Z,18.57
2022-07-28T09:36:39.529Z,18.83
2022-07-28T09:39:09.637Z,18.67
2022-07-28T09:41:56.348Z,18.63
2022-07-28T09:44:26.310Z,18.67
2022-07-28T09:46:58.001Z,19.00
2022-07-28T09:49:42.980Z,19.25
2022-07-28T09:52:11.717Z,19.25
2022-07-28T09:54:41.164Z,19.35
2022-07-28T09:57:11.845Z,19.32
2022-07-28T09:59:46.153Z,19.28
2022-07-28T10:02:26.477Z,19.38
2022-07-28T10:04:56.742Z,19.41
2022-07-28T10:07:24.768Z,19.80
2022-07-28T10:10:00.236Z,19.88
2022-07-28T10:12:30.636Z,20.01
2022-07-28T10:15:00.560Z,19.77
2022-07-28T10:17:31.975Z,19.80
2022-07-28T10:20:01.421Z,20.01
2022-07-28T10:22:33.218Z,20.00
2022-07-28T10:25:03.819Z,20.05
2022-07-28T10:27:32.673Z,19.91
2022-07-28T10:30:03.302Z,20.00
2022-07-28T10:32:39.308Z,20.08
2022-07-28T10:35:11.169Z,20.11
2022-07-28T10:37:44.734Z,20.20
2022-07-28T10:40:14.009Z,20.39
2022-07-28T10:42:43.143Z,20.26
2022-07-28T10:45:12.233Z,20.28
2022-07-28T10:47:42.047Z,20.40
2022-07-28T10:50:10.528Z,20.70
2022-07-28T10:52:48.167Z,20.72
2022-07-28T10:55:21.544Z,20.87
2022-07-28T10:58:01.693Z,20.28
2022-07-28T11:00:53.022Z,20.57
2022-07-28T11:03:40.967Z,20.60
2022-07-28T11:06:29.324Z,21.14
2022-07-28T11:08:59.198Z,21.09
2022-07-28T11:11:47.735Z,20.66
2022-07-28T11:14:34.035Z,21.07
2022-07-28T11:17:24.447Z,21.34
2022-07-28T11:20:27.121Z,21.45
2022-07-28T11:22:51.840Z,21.76
2022-07-28T11:25:22.146Z,21.91
2022-07-28T11:28:06.846Z,21.71
2022-07-28T11:30:54.408Z,21.78
2022-07-28T11:33:24.906Z,21.95
2022-07-28T11:36:02.328Z,21.93
2022-07-28T11:38:30.623Z,22.01
2022-07-28T11:40:58.637Z,22.33
2022-07-28T11:43:36.690Z,22.63
2022-07-28T11:46:37.651Z,22.28
2022-07-28T11:49:27.879Z,22.14
2022-07-28T11:52:20.972Z,22.52
2022-07-28T11:54:54.472Z,22.70
2022-07-28T11:57:29.253Z,22.81
2022-07-28T12:00:00.594Z,22.53
2022-07-28T12:02:33.983Z,22.05
2022-07-28T12:05:14.870Z,22.73
2022-07-28T12:07:49.852Z,22.74
2022-07-28T12:13:27.034Z,22.98
2022-07-28T12:15:55.149Z,23.11
2022-07-28T12:18:24.781Z,23.00
2022-07-28T12:20:54.868Z,22.55
2022-07-28T12:23:34.957Z,22.36
2022-07-28T12:26:07.526Z,22.26
2022-07-28T12:28:38.211Z,22.94
2022-07-28T12:31:13.536Z,23.33
2022-07-28T12:33:41.663Z,23.57
2022-07-28T12:36:10.054Z,24.74
2022-07-28T12:38:39.582Z,25.49
2022-07-28T12:41:15.365Z,25.82
2022-07-28T12:43:50.884Z,26.19
2022-07-28T12:46:23.072Z,26.39
2022-07-28T12:48:55.797Z,25.94
2022-07-28T12:51:35.219Z,26.61
2022-07-28T12:54:06.052Z,26.51
2022-07-28T12:56:45.845Z,26.54
2022-07-28T12:59:14.428Z,27.70
2022-07-28T13:01:50.648Z,26.37
2022-07-28T13:04:38.408Z,27.22
2022-07-28T13:07:09.888Z,28.13
2022-07-28T13:09:47.062Z,28.05
2022-07-28T13:12:18.387Z,28.99
2022-07-28T13:14:48.469Z,28.77
2022-07-28T13:17:16.601Z,29.02
2022-07-28T13:19:45.479Z,28.33
2022-07-28T13:22:13.548Z,27.68
2022-07-28T13:24:42.922Z,28.22
2022-07-28T13:27:11.089Z,29.26
2022-07-28T13:29:39.115Z,27.96
2022-07-28T13:32:08.046Z,28.40
2022-07-28T13:34:36.213Z,28.96
2022-07-28T13:37:04.712Z,29.65
2022-07-28T13:39:32.718Z,30.22
2022-07-28T13:42:05.396Z,29.29
2022-07-28T13:44:34.954Z,29.33
2022-07-28T13:47:05.673Z,29.09
2022-07-28T13:49:37.353Z,28.96
2022-07-28T13:52:06.900Z,29.22
2022-07-28T13:54:41.373Z,30.40
2022-07-28T13:57:10.838Z,29.38
2022-07-28T13:59:39.055Z,30.51
2022-07-28T14:02:13.621Z,29.67
2022-07-28T14:04:46.131Z,30.84
2022-07-28T14:07:20.801Z,30.22
2022-07-28T14:09:50.229Z,29.81
2022-07-28T14:12:20.161Z,30.61
2022-07-28T14:14:48.911Z,29.92
2022-07-28T14:20:12.146Z,29.63
2022-07-28T14:22:40.286Z,28.77
2022-07-28T14:25:08.907Z,27.92
2022-07-28T14:27:39.172Z,27.87
2022-07-28T14:30:08.837Z,27.70
2022-07-28T14:32:39.034Z,29.47
2022-07-28T14:35:07.642Z,28.87
2022-07-28T14:38:11.231Z,28.69
2022-07-28T14:40:23.756Z,26.75
2022-07-28T14:42:53.113Z,26.47
2022-07-28T14:45:20.996Z,26.18
2022-07-28T14:47:49.059Z,27.08
2022-07-28T14:50:17.062Z,27.71
2022-07-28T14:52:45.358Z,27.80
2022-07-28T14:55:13.724Z,26.87
2022-07-28T14:57:48.377Z,26.88
2022-07-28T15:00:23.460Z,25.99
2022-07-28T15:02:53.051Z,25.91
2022-07-28T15:05:21.778Z,25.75
2022-07-28T15:07:52.024Z,25.66
2022-07-28T15:10:21.063Z,25.26
2022-07-28T15:12:50.135Z,25.46
2022-07-28T15:15:18.363Z,25.51
2022-07-28T15:17:47.752Z,25.39
2022-07-28T15:20:16.436Z,25.92
2022-07-28T15:22:44.478Z,25.37
2022-07-28T15:25:12.477Z,26.02
2022-07-28T15:27:44.616Z,26.43
2022-07-28T15:30:14.783Z,25.47
2022-07-28T15:32:57.049Z,27.44
2022-07-28T15:35:27.315Z,29.40
2022-07-28T15:37:55.433Z,28.75
2022-07-28T15:40:23.895Z,28.35
2022-07-28T15:42:52.952Z,27.99
2022-07-28T15:45:21.142Z,28.23
2022-07-28T15:47:49.180Z,28.17
2022-07-28T15:50:17.324Z,27.87
2022-07-28T15:52:46.854Z,28.50
2022-07-28T15:55:14.939Z,31.30
2022-07-28T15:57:42.904Z,29.68
2022-07-28T16:00:11.547Z,29.43
2022-07-28T16:02:39.773Z,27.78
2022-07-28T16:05:08.219Z,28.47
2022-07-28T16:07:36.360Z,28.98
2022-07-28T16:10:06.543Z,29.16
2022-07-28T16:12:34.597Z,29.20
2022-07-28T16:15:02.620Z,29.46
2022-07-28T16:17:30.626Z,30.27
2022-07-28T16:20:02.241Z,30.30
2022-07-28T16:22:30.700Z,29.67
2022-07-28T16:24:58.726Z,30.27
2022-07-28T16:27:28.120Z,30.37
2022-07-28T16:29:56.223Z,30.05
2022-07-28T16:32:24.813Z,29.74
2022-07-28T16:34:53.966Z,28.60
2022-07-28T16:37:22.439Z,28.85
2022-07-28T16:39:51.627Z,28.63
2022-07-28T16:42:19.700Z,27.37
2022-07-28T16:44:49.217Z,26.61
2022-07-28T16:47:17.785Z,26.46
2022-07-28T16:49:46.449Z,26.01
2022-07-28T16:52:15.074Z,25.95
2022-07-28T16:54:43.585Z,26.40
2022-07-28T16:57:12.033Z,26.22
2022-07-28T16:59:48.300Z,26.96
2022-07-28T17:02:19.285Z,26.08
2022-07-28T17:04:47.943Z,25.61
2022-07-28T17:07:16.277Z,25.15
2022-07-28T17:09:44.252Z,25.59
2022-07-28T17:12:12.319Z,26.71
2022-07-28T17:14:40.345Z,26.32
2022-07-28T17:17:09.112Z,26.77
2022-07-28T17:19:43.384Z,26.90
2022-07-28T17:22:15.258Z,26.21
2022-07-28T17:24:43.213Z,26.73
2022-07-28T17:29:59.194Z,25.32
2022-07-28T17:32:27.136Z,25.26
2022-07-28T17:34:57.120Z,24.87
2022-07-28T17:37:27.269Z,24.30
2022-07-28T17:39:55.387Z,23.94
2022-07-28T17:42:23.411Z,23.73
2022-07-28T17:44:53.603Z,23.88
2022-07-28T17:47:24.019Z,23.52
2022-07-28T17:50:07.250Z,23.50
2022-07-28T17:52:35.193Z,23.81
2022-07-28T17:55:20.679Z,23.43
2022-07-28T17:57:52.130Z,23.47
2022-07-28T18:00:21.416Z,23.35
2022-07-28T18:02:50.263Z,23.05
2022-07-28T18:05:20.293Z,23.07
2022-07-28T18:07:50.194Z,23.09
2022-07-28T18:10:24.754Z,23.08
2022-07-28T18:12:53.269Z,22.78
2022-07-28T18:15:21.434Z,22.64
2022-07-28T18:17:55.396Z,22.50
2022-07-28T18:20:25.582Z,22.57
2022-07-28T18:23:01.615Z,22.60
2022-07-28T18:25:30.216Z,22.36
2022-07-28T18:27:59.197Z,22.23
2022-07-28T18:30:28.137Z,22.05
2022-07-28T18:32:56.277Z,22.05
2022-07-28T18:35:24.616Z,21.80
2022-07-28T18:37:53.093Z,21.87
2022-07-28T18:40:23.893Z,21.64
2022-07-28T18:42:52.899Z,21.57
2022-07-28T18:45:21.318Z,21.49
2022-07-28T18:47:49.375Z,21.49
2022-07-28T18:50:28.078Z,21.34
2022-07-28T18:53:00.289Z,21.24
2022-07-28T18:55:29.781Z,21.14
2022-07-28T18:57:57.964Z,21.02
2022-07-28T19:00:26.075Z,20.98
2022-07-28T19:02:54.171Z,20.94
2022-07-28T19:05:22.692Z,20.77
2022-07-28T19:07:51.216Z,20.77
2022-07-28T19:10:19.418Z,20.64
2022-07-28T19:12:50.844Z,20.59
2022-07-28T19:15:18.942Z,20.60
2022-07-28T19:17:47.111Z,20.49
2022-07-28T19:20:35.141Z,20.56
2022-07-28T19:23:05.316Z,20.43
2022-07-28T19:25:36.149Z,20.31
2022-07-28T19:28:06.267Z,20.25
2022-07-28T19:30:34.163Z,20.15
2022-07-28T19:33:02.698Z,20.17
2022-07-28T19:35:30.892Z,20.10
2022-07-28T19:38:00.194Z,20.00
2022-07-28T19:40:31.598Z,19.90
2022-07-28T19:42:59.683Z,19.84
2022-07-28T19:45:29.061Z,19.84
2022-07-28T19:47:57.062Z,19.90
2022-07-28T19:50:25.113Z,19.88
2022-07-28T19:52:53.215Z,19.90
2022-07-28T19:55:21.834Z,19.78
2022-07-28T19:57:49.866Z,19.80
2022-07-28T20:00:18.396Z,19.76
2022-07-28T20:02:48.150Z,19.69
2022-07-28T20:05:16.347Z,19.74
2022-07-28T20:07:45.917Z,19.66
2022-07-28T20:10:14.346Z,19.52
2022-07-28T20:12:42.414Z,19.43
2022-07-28T20:15:11.163Z,19.43
2022-07-28T20:17:40.223Z,19.31
2022-07-28T20:20:12.418Z,19.17
2022-07-28T20:22:41.069Z,19.17
2022-07-28T20:25:10.629Z,19.19
2022-07-28T20:27:40.405Z,19.14
2022-07-28T20:30:10.000Z,18.91
2022-07-28T20:32:38.229Z,18.93
2022-07-28T20:35:11.663Z,18.80
2022-07-28T20:37:39.837Z,18.67
2022-07-28T20:40:09.614Z,18.55
2022-07-28T20:42:37.486Z,18.53
2022-07-28T20:45:06.447Z,18.39
2022-07-28T20:47:34.686Z,18.45
2022-07-28T20:50:05.229Z,18.57
2022-07-28T20:52:34.955Z,18.53
2022-07-28T20:55:04.512Z,18.52
2022-07-28T20:57:32.568Z,18.35
2022-07-28T21:00:00.809Z,18.38
2022-07-28T21:02:28.900Z,18.39
2022-07-28T21:04:56.986Z,18.12
2022-07-28T21:08:05.455Z,18.22
2022-07-28T21:10:14.821Z,18.41
2022-07-28T21:12:42.825Z,18.25
2022-07-28T21:15:13.032Z,18.21
2022-07-28T21:17:41.092Z,18.15
2022-07-28T21:20:10.291Z,18.21
2022-07-28T21:22:38.872Z,18.27
2022-07-28T21:25:08.460Z,18.34
2022-07-28T21:27:52.012Z,18.24
2022-07-28T21:30:20.262Z,18.20
2022-07-28T21:32:55.938Z,18.31
2022-07-28T21:35:24.154Z,18.45
2022-07-28T21:37:52.365Z,18.48
2022-07-28T21:40:20.448Z,18.32
2022-07-28T21:42:49.789Z,18.32
2022-07-28T21:45:18.113Z,18.18
2022-07-28T21:47:46.231Z,18.28
2022-07-28T21:50:15.104Z,18.27
2022-07-28T21:52:43.303Z,18.08
2022-07-28T21:55:11.469Z,17.98
2022-07-28T21:57:39.697Z,17.89
2022-07-28T22:00:12.101Z,18.05
2022-07-28T22:02:41.236Z,18.22
2022-07-28T22:05:11.263Z,18.11
2022-07-28T22:07:39.511Z,18.04
2022-07-28T22:10:08.140Z,17.94
2022-07-28T22:12:36.255Z,17.79
2022-07-28T22:15:04.935Z,17.83
2022-07-28T22:17:34.489Z,17.72
2022-07-28T22:20:02.598Z,17.66
2022-07-28T22:22:30.694Z,17.89
2022-07-28T22:24:59.697Z,17.89
2022-07-28T22:27:28.300Z,17.83
2022-07-28T22:29:56.433Z,17.83
2022-07-28T22:32:29.134Z,17.76
2022-07-28T22:34:59.377Z,17.65
2022-07-28T22:37:27.155Z,17.75
2022-07-28T22:39:55.186Z,17.66
2022-07-28T22:42:23.495Z,17.66
2022-07-28T22:44:51.735Z,17.59
2022-07-28T22:47:19.791Z,17.59
2022-07-28T22:49:47.882Z,17.52
2022-07-28T22:52:17.305Z,17.42
2022-07-28T22:54:45.365Z,17.32
2022-07-28T22:57:13.435Z,17.45
2022-07-28T22:59:42.117Z,17.52
2022-07-28T23:02:15.199Z,17.43
2022-07-28T23:04:45.861Z,17.35
2022-07-28T23:07:19.152Z,17.69
2022-07-28T23:09:47.356Z,17.49
2022-07-28T23:12:15.357Z,17.53
2022-07-28T23:14:43.428Z,17.42
2022-07-28T23:17:11.589Z,17.30
2022-07-28T23:19:39.605Z,17.30
2022-07-28T23:22:07.667Z,17.36
2022-07-28T23:24:37.056Z,17.48
2022-07-28T23:27:05.447Z,17.46
2022-07-28T23:29:33.933Z,17.41
2022-07-28T23:32:02.026Z,17.38
2022-07-28T23:34:30.098Z,17.25
2022-07-28T23:36:58.108Z,17.23
2022-07-28T23:39:26.109Z,17.27
2022-07-28T23:41:55.500Z,17.27
2022-07-28T23:44:23.657Z,17.30
2022-07-28T23:46:51.690Z,17.31
2022-07-28T23:49:19.817Z,17.41
2022-07-28T23:51:48.872Z,17.39
2022-07-28T23:54:17.632Z,17.52
2022-07-28T23:56:45.946Z,17.42
2022-07-28T23:59:15.324Z,17.31
